Time;durP1;ratioP1;P1;durP2;ratioP2;P2;SDS_P1;SDS_P2;PMS_P1;PMS_P2;Temp;Humidity;BMP_temperature;BMP_pressure;BME280_temperature;BME280_humidity;BME280_pressure;Samples;Min_cycle;Max_cycle;Signal;HPM_P1;HPM_P2
2024/01/14 00:00:33;;;;;;;10.43;5.85;;;;;;;;;;5012843;28;20217;-61
2024/01/14 00:02:59;;;;;;;13.45;7.05;;;;;;;;;;5013902;28;20271;-61
2024/01/14 00:05:25;;;;;;;11.30;6.45;;;;;;;;;;5015208;28;20155;-61
2024/01/14 00:07:53;;;;;;;10.73;6.13;;;;;;;;;;5017847;28;20033;-61
2024/01/14 00:10:19;;;;;;;13.85;6.93;;;;;;;;;;5020922;28;20034;-62
2024/01/14 00:12:45;;;;;;;8.23;4.82;;;;;;;;;;5017931;28;20421;-61
2024/01/14 00:15:11;;;;;;;10.75;6.80;;;;;;;;;;5047912;28;20030;-62
2024/01/14 00:17:38;;;;;;;15.90;8.05;;;;;;;;;;5015853;28;20033;-62
2024/01/14 00:20:05;;;;;;;15.63;7.95;;;;;;;;;;5018350;28;20057;-61
2024/01/14 00:22:31;;;;;;;15.68;7.05;;;;;;;;;;5012549;28;20199;-61
2024/01/14 00:24:57;;;;;;;12.75;6.40;;;;;;;;;;5020318;28;20029;-61
2024/01/14 00:27:23;;;;;;;11.73;6.50;;;;;;;;;;5012649;28;20057;-61
2024/01/14 00:29:50;;;;;;;12.60;6.30;;;;;;;;;;5008027;28;20045;-61
2024/01/14 00:32:16;;;;;;;10.80;5.55;;;;;;;;;;5018315;28;20094;-62
2024/01/14 00:34:42;;;;;;;15.65;6.78;;;;;;;;;;5008786;28;20037;-61
2024/01/14 00:37:08;;;;;;;18.73;6.60;;;;;;;;;;5017510;28;20089;-61
2024/01/14 00:39:38;;;;;;;18.55;8.13;;;;;;;;;;5020384;28;20393;-61
2024/01/14 00:42:04;;;;;;;17.70;8.82;;;;;;;;;;5014278;28;20076;-61
2024/01/14 00:44:30;;;;;;;12.35;5.85;;;;;;;;;;5011130;28;20105;-61
2024/01/14 00:46:56;;;;;;;11.32;5.72;;;;;;;;;;5019584;28;20504;-61
2024/01/14 00:49:22;;;;;;;10.43;6.07;;;;;;;;;;5009834;28;20780;-62
2024/01/14 00:51:48;;;;;;;10.50;6.07;;;;;;;;;;5011253;28;20052;-61
2024/01/14 00:54:15;;;;;;;9.65;5.63;;;;;;;;;;5018867;28;20033;-61
2024/01/14 00:56:41;;;;;;;11.45;6.10;;;;;;;;;;5017317;28;20026;-61
2024/01/14 00:59:08;;;;;;;9.65;5.13;;;;;;;;;;5017836;28;20041;-61
2024/01/14 01:01:34;;;;;;;18.30;6.35;;;;;;;;;;5017187;28;20500;-60
2024/01/14 01:04:00;;;;;;;11.90;5.78;;;;;;;;;;5014165;28;20038;-62
2024/01/14 01:06:27;;;;;;;11.02;6.05;;;;;;;;;;5015297;28;20036;-60
2024/01/14 01:08:53;;;;;;;10.32;5.50;;;;;;;;;;5010948;28;20386;-61
2024/01/14 01:11:19;;;;;;;12.50;6.15;;;;;;;;;;5021377;28;20127;-61
2024/01/14 01:13:45;;;;;;;10.52;6.05;;;;;;;;;;5034279;28;20057;-61
2024/01/14 01:16:11;;;;;;;11.82;6.22;;;;;;;;;;5019138;28;20055;-65
2024/01/14 01:18:38;;;;;;;19.27;5.65;;;;;;;;;;5013668;28;20116;-61
2024/01/14 01:21:04;;;;;;;13.90;6.72;;;;;;;;;;5021539;28;20056;-61
2024/01/14 01:23:30;;;;;;;11.68;6.25;;;;;;;;;;5008747;28;20044;-61
2024/01/14 01:25:56;;;;;;;6.05;4.95;;;;;;;;;;5018548;28;20021;-65
2024/01/14 01:28:22;;;;;;;7.95;4.93;;;;;;;;;;5019674;28;20116;-66
2024/01/14 01:30:48;;;;;;;12.15;6.15;;;;;;;;;;5015133;28;20380;-62
2024/01/14 01:33:14;;;;;;;10.05;6.03;;;;;;;;;;5025981;28;20815;-61
2024/01/14 01:35:40;;;;;;;10.50;5.38;;;;;;;;;;5013999;28;20026;-61
2024/01/14 01:38:06;;;;;;;8.65;4.78;;;;;;;;;;5009014;28;20485;-61
2024/01/14 01:40:33;;;;;;;10.73;5.05;;;;;;;;;;5007278;28;20033;-61
2024/01/14 01:42:59;;;;;;;10.48;5.07;;;;;;;;;;5010594;28;20027;-61
2024/01/14 01:45:25;;;;;;;12.50;5.65;;;;;;;;;;5018926;28;20428;-61
2024/01/14 01:47:51;;;;;;;8.18;4.78;;;;;;;;;;5008775;28;20350;-61
2024/01/14 01:50:18;;;;;;;12.63;4.57;;;;;;;;;;5006224;28;20413;-61
2024/01/14 01:52:44;;;;;;;10.00;5.05;;;;;;;;;;5016987;28;20039;-60
2024/01/14 01:55:10;;;;;;;13.85;5.45;;;;;;;;;;5015165;28;20033;-62
2024/01/14 01:57:37;;;;;;;5.60;4.20;;;;;;;;;;5031279;28;20033;-61
2024/01/14 02:00:03;;;;;;;8.85;4.20;;;;;;;;;;5024344;28;20029;-61
2024/01/14 02:02:29;;;;;;;7.28;5.10;;;;;;;;;;5034605;28;20037;-61
2024/01/14 02:04:55;;;;;;;10.15;5.55;;;;;;;;;;5019564;28;20352;-61
2024/01/14 02:07:22;;;;;;;7.97;4.88;;;;;;;;;;5034070;28;20029;-61
2024/01/14 02:09:48;;;;;;;8.38;4.78;;;;;;;;;;5018130;28;20734;-61
2024/01/14 02:12:14;;;;;;;9.63;5.20;;;;;;;;;;5024797;28;20036;-62
2024/01/14 02:14:40;;;;;;;7.47;4.35;;;;;;;;;;5015145;28;20128;-60
2024/01/14 02:17:06;;;;;;;15.48;5.13;;;;;;;;;;5015655;28;20033;-61
2024/01/14 02:19:32;;;;;;;9.38;5.15;;;;;;;;;;5021197;28;20083;-61
2024/01/14 02:22:08;;;;;;;8.82;5.72;;;;;;;;;;5022292;28;20037;-61
2024/01/14 02:24:34;;;;;;;;;;;;;;;;;;5017333;28;20112;-61
2024/01/14 02:27:00;;;;;;;8.68;4.25;;;;;;;;;;5022242;28;20380;-62
2024/01/14 02:29:28;;;;;;;10.95;5.65;;;;;;;;;;5011907;28;20083;-61
2024/01/14 02:31:54;;;;;;;10.55;5.18;;;;;;;;;;5017851;28;20029;-61
2024/01/14 02:34:21;;;;;;;7.00;5.18;;;;;;;;;;5023048;28;20119;-62
2024/01/14 02:36:47;;;;;;;12.10;5.95;;;;;;;;;;5016479;28;20315;-62
2024/01/14 02:39:16;;;;;;;10.23;5.63;;;;;;;;;;5009974;28;20040;-61
2024/01/14 02:41:43;;;;;;;7.45;4.70;;;;;;;;;;5019630;28;20364;-61
2024/01/14 02:44:09;;;;;;;7.80;4.68;;;;;;;;;;5014837;28;20706;-61
2024/01/14 02:46:36;;;;;;;9.23;4.68;;;;;;;;;;5030679;28;20032;-62
2024/01/14 02:49:02;;;;;;;8.07;4.45;;;;;;;;;;5010874;28;20600;-61
2024/01/14 02:51:28;;;;;;;9.40;5.05;;;;;;;;;;5019389;28;20053;-61
2024/01/14 02:53:54;;;;;;;10.93;4.68;;;;;;;;;;5007938;28;20140;-61
2024/01/14 02:56:20;;;;;;;7.88;5.55;;;;;;;;;;5013035;28;20054;-62
2024/01/14 02:58:46;;;;;;;9.27;5.15;;;;;;;;;;5023210;28;20044;-61
2024/01/14 03:01:13;;;;;;;10.82;5.57;;;;;;;;;;5020177;28;20025;-62
2024/01/14 03:03:39;;;;;;;9.65;4.57;;;;;;;;;;5017964;28;20030;-61
2024/01/14 03:06:05;;;;;;;7.65;4.30;;;;;;;;;;5009759;28;20033;-62
2024/01/14 03:08:32;;;;;;;11.02;5.82;;;;;;;;;;5030016;28;20112;-60
2024/01/14 03:10:58;;;;;;;9.30;4.50;;;;;;;;;;5019434;28;20040;-61
2024/01/14 03:13:26;;;;;;;5.95;4.15;;;;;;;;;;5017568;28;20025;-61
2024/01/14 03:15:53;;;;;;;5.13;4.10;;;;;;;;;;5017458;28;20037;-61
2024/01/14 03:18:19;;;;;;;6.65;3.70;;;;;;;;;;5019129;28;20034;-61
2024/01/14 03:20:45;;;;;;;7.82;4.32;;;;;;;;;;5013162;28;20034;-61
2024/01/14 03:23:11;;;;;;;7.05;5.13;;;;;;;;;;5018555;28;20033;-61
2024/01/14 03:25:37;;;;;;;12.73;4.13;;;;;;;;;;5016047;28;20045;-65
2024/01/14 03:28:03;;;;;;;5.25;4.13;;;;;;;;;;5013713;28;20481;-62
2024/01/14 03:30:30;;;;;;;6.20;3.80;;;;;;;;;;5013013;28;20062;-61
2024/01/14 03:32:56;;;;;;;6.00;3.35;;;;;;;;;;5015969;28;20022;-61
2024/01/14 03:35:22;;;;;;;7.00;4.03;;;;;;;;;;5012921;28;20509;-62
2024/01/14 03:37:48;;;;;;;4.85;3.13;;;;;;;;;;5011215;28;20061;-61
2024/01/14 03:40:14;;;;;;;8.98;3.80;;;;;;;;;;5014584;28;20493;-60
2024/01/14 03:42:40;;;;;;;6.38;4.22;;;;;;;;;;5016693;28;20025;-61
2024/01/14 03:45:07;;;;;;;8.07;4.97;;;;;;;;;;5014395;28;20030;-61
2024/01/14 03:47:33;;;;;;;6.60;3.88;;;;;;;;;;5020990;28;20023;-61
2024/01/14 03:49:59;;;;;;;7.38;4.45;;;;;;;;;;5021278;28;20081;-61
2024/01/14 03:52:25;;;;;;;3.60;3.30;;;;;;;;;;5016937;28;20512;-62
2024/01/14 03:54:52;;;;;;;10.27;5.10;;;;;;;;;;5016016;28;20033;-62
2024/01/14 03:57:18;;;;;;;4.70;3.08;;;;;;;;;;5015427;28;20037;-61
2024/01/14 03:59:44;;;;;;;5.72;3.50;;;;;;;;;;5013140;28;20558;-62
2024/01/14 04:02:11;;;;;;;9.23;4.28;;;;;;;;;;5036062;28;20064;-61
2024/01/14 04:04:37;;;;;;;7.15;4.13;;;;;;;;;;5023786;28;20029;-63
2024/01/14 04:07:03;;;;;;;6.38;4.47;;;;;;;;;;5017059;28;20520;-61
2024/01/14 04:09:29;;;;;;;5.50;3.70;;;;;;;;;;5012937;28;20165;-61
2024/01/14 04:11:55;;;;;;;5.53;3.95;;;;;;;;;;5017115;28;20401;-61
2024/01/14 04:14:21;;;;;;;7.30;3.72;;;;;;;;;;5008690;28;20080;-61
2024/01/14 04:16:47;;;;;;;12.68;4.88;;;;;;;;;;5017812;28;20390;-61
2024/01/14 04:19:13;;;;;;;8.38;4.57;;;;;;;;;;5019006;28;20032;-62
2024/01/14 04:21:40;;;;;;;5.80;4.05;;;;;;;;;;5014766;28;20462;-61
2024/01/14 04:24:06;;;;;;;4.50;3.78;;;;;;;;;;5021134;28;20030;-61
2024/01/14 04:26:32;;;;;;;7.28;5.35;;;;;;;;;;5027997;28;20029;-61
2024/01/14 04:28:58;;;;;;;7.40;3.80;;;;;;;;;;5016278;28;20505;-61
2024/01/14 04:31:24;;;;;;;6.85;3.92;;;;;;;;;;5019295;28;20025;-61
2024/01/14 04:33:50;;;;;;;7.57;4.25;;;;;;;;;;5018547;28;20033;-62
2024/01/14 04:36:17;;;;;;;5.28;3.50;;;;;;;;;;5015718;28;20087;-61
2024/01/14 04:38:43;;;;;;;10.80;4.85;;;;;;;;;;5015533;28;20071;-61
2024/01/14 04:41:09;;;;;;;9.52;3.83;;;;;;;;;;5021998;28;20025;-61
2024/01/14 04:43:38;;;;;;;7.22;3.80;;;;;;;;;;5012216;28;20096;-61
2024/01/14 04:46:09;;;;;;;7.35;3.22;;;;;;;;;;5015075;28;20025;-61
2024/01/14 04:48:35;;;;;;;7.10;4.07;;;;;;;;;;5013083;28;20030;-61
2024/01/14 04:51:01;;;;;;;4.38;3.25;;;;;;;;;;5031061;28;20504;-61
2024/01/14 04:53:27;;;;;;;6.82;3.88;;;;;;;;;;5020450;28;20037;-60
2024/01/14 04:55:54;;;;;;;6.80;4.13;;;;;;;;;;5015530;28;20715;-61
2024/01/14 04:58:20;;;;;;;7.82;5.10;;;;;;;;;;5020883;28;20018;-61
2024/01/14 05:00:46;;;;;;;6.45;3.53;;;;;;;;;;5014453;28;20389;-61
2024/01/14 05:03:13;;;;;;;7.65;3.53;;;;;;;;;;5022921;28;20426;-61
2024/01/14 05:05:40;;;;;;;8.02;4.05;;;;;;;;;;5030894;28;20025;-61
2024/01/14 05:08:06;;;;;;;6.32;3.85;;;;;;;;;;5017937;28;20457;-62
2024/01/14 05:10:32;;;;;;;6.80;4.13;;;;;;;;;;5014050;28;20055;-61
2024/01/14 05:12:58;;;;;;;5.88;4.10;;;;;;;;;;5014749;28;20033;-61
2024/01/14 05:15:24;;;;;;;8.18;4.53;;;;;;;;;;5015803;28;20041;-65
2024/01/14 05:17:50;;;;;;;6.68;3.38;;;;;;;;;;5013950;28;20026;-61
2024/01/14 05:20:16;;;;;;;9.07;4.68;;;;;;;;;;5021224;28;20033;-61
2024/01/14 05:22:43;;;;;;;6.47;3.58;;;;;;;;;;5016305;28;20118;-62
2024/01/14 05:25:09;;;;;;;5.05;3.38;;;;;;;;;;5013164;28;21372;-61
2024/01/14 05:27:35;;;;;;;5.18;4.07;;;;;;;;;;5021504;28;20030;-61
2024/01/14 05:30:03;;;;;;;4.85;3.55;;;;;;;;;;5015342;28;20033;-61
2024/01/14 05:32:29;;;;;;;7.65;3.65;;;;;;;;;;5019549;28;20034;-62
2024/01/14 05:34:55;;;;;;;4.95;3.30;;;;;;;;;;5011977;28;20033;-61
2024/01/14 05:37:21;;;;;;;8.32;3.65;;;;;;;;;;5010755;28;20030;-61
2024/01/14 05:39:47;;;;;;;4.88;3.70;;;;;;;;;;5009019;28;21566;-61
2024/01/14 05:42:13;;;;;;;6.78;4.00;;;;;;;;;;5018655;28;20021;-61
2024/01/14 05:44:40;;;;;;;6.28;4.03;;;;;;;;;;5019793;28;20033;-61
2024/01/14 05:47:06;;;;;;;7.72;3.70;;;;;;;;;;5019697;28;20056;-64
2024/01/14 05:49:33;;;;;;;5.45;3.75;;;;;;;;;;5013660;28;20020;-61
2024/01/14 05:51:59;;;;;;;4.82;3.63;;;;;;;;;;5019807;28;20037;-61
2024/01/14 05:54:25;;;;;;;3.97;3.03;;;;;;;;;;5016476;28;20104;-61
2024/01/14 05:56:51;;;;;;;9.80;3.47;;;;;;;;;;5018926;28;20082;-61
2024/01/14 05:59:18;;;;;;;4.68;3.50;;;;;;;;;;5028399;28;20030;-61
2024/01/14 06:01:44;;;;;;;3.35;2.65;;;;;;;;;;5014789;28;20164;-61
2024/01/14 06:04:10;;;;;;;5.90;3.75;;;;;;;;;;5015193;28;20100;-61
2024/01/14 06:06:36;;;;;;;4.68;3.25;;;;;;;;;;5007656;28;20021;-61
2024/01/14 06:09:02;;;;;;;3.40;3.10;;;;;;;;;;5015902;28;20030;-61
2024/01/14 06:11:28;;;;;;;5.07;3.72;;;;;;;;;;5012482;28;20041;-61
2024/01/14 06:13:54;;;;;;;6.63;3.95;;;;;;;;;;5015506;28;20030;-61
2024/01/14 06:16:20;;;;;;;8.38;3.80;;;;;;;;;;5012539;28;20459;-61
2024/01/14 06:18:46;;;;;;;3.22;2.88;;;;;;;;;;5011403;28;20029;-61
2024/01/14 06:21:13;;;;;;;6.07;3.63;;;;;;;;;;5010690;28;20412;-61
2024/01/14 06:23:39;;;;;;;7.45;3.60;;;;;;;;;;5013115;28;20030;-61
2024/01/14 06:26:05;;;;;;;6.88;4.20;;;;;;;;;;5005773;28;20418;-62
2024/01/14 06:28:31;;;;;;;4.38;3.65;;;;;;;;;;5007368;28;20105;-61
2024/01/14 06:30:57;;;;;;;5.53;3.55;;;;;;;;;;5011194;28;20132;-61
2024/01/14 06:33:23;;;;;;;8.85;3.55;;;;;;;;;;5017765;28;20034;-61
2024/01/14 06:35:49;;;;;;;4.80;3.13;;;;;;;;;;5022439;28;20393;-61
2024/01/14 06:38:15;;;;;;;7.85;3.58;;;;;;;;;;5018215;28;20034;-61
2024/01/14 06:40:42;;;;;;;6.00;3.80;;;;;;;;;;5014484;28;20355;-62
2024/01/14 06:43:08;;;;;;;5.53;3.60;;;;;;;;;;5013708;28;20026;-61
2024/01/14 06:45:34;;;;;;;7.00;3.83;;;;;;;;;;5024307;28;20025;-61
2024/01/14 06:48:00;;;;;;;4.82;3.33;;;;;;;;;;5014799;28;20018;-61
2024/01/14 06:50:26;;;;;;;7.65;2.47;;;;;;;;;;5013026;28;21046;-62
2024/01/14 06:52:52;;;;;;;4.35;3.78;;;;;;;;;;5019527;28;20030;-62
2024/01/14 06:55:19;;;;;;;4.20;3.05;;;;;;;;;;5008302;28;20037;-61
2024/01/14 06:57:45;;;;;;;6.38;3.15;;;;;;;;;;5013397;28;20069;-62
2024/01/14 07:00:12;;;;;;;5.07;3.20;;;;;;;;;;5012830;28;20033;-61
2024/01/14 07:02:38;;;;;;;5.45;3.55;;;;;;;;;;5018159;28;20037;-61
2024/01/14 07:05:08;;;;;;;4.68;2.50;;;;;;;;;;5015020;28;20440;-61
2024/01/14 07:07:34;;;;;;;3.90;3.13;;;;;;;;;;5018463;28;20116;-61
2024/01/14 07:10:00;;;;;;;3.05;2.72;;;;;;;;;;5018058;28;20124;-62
2024/01/14 07:12:27;;;;;;;6.75;4.47;;;;;;;;;;5023949;28;20029;-61
2024/01/14 07:14:53;;;;;;;7.43;3.55;;;;;;;;;;5011046;28;20030;-64
2024/01/14 07:17:19;;;;;;;3.33;2.67;;;;;;;;;;5032867;28;20413;-61
2024/01/14 07:19:45;;;;;;;6.63;3.60;;;;;;;;;;5016368;28;20515;-62
2024/01/14 07:22:11;;;;;;;4.28;2.90;;;;;;;;;;5014364;28;20025;-61
2024/01/14 07:24:37;;;;;;;6.28;3.33;;;;;;;;;;5019138;28;20541;-63
2024/01/14 07:27:04;;;;;;;6.45;3.55;;;;;;;;;;5015388;28;20036;-61
2024/01/14 07:29:30;;;;;;;4.13;3.10;;;;;;;;;;5012320;28;20469;-61
2024/01/14 07:31:58;;;;;;;4.05;3.35;;;;;;;;;;5018543;28;20485;-62
2024/01/14 07:34:24;;;;;;;3.58;2.75;;;;;;;;;;5017726;28;20060;-64
2024/01/14 07:36:50;;;;;;;3.97;2.55;;;;;;;;;;5018381;28;20036;-61
2024/01/14 07:39:16;;;;;;;4.13;3.72;;;;;;;;;;5016008;28;20128;-65
2024/01/14 07:41:42;;;;;;;4.97;3.13;;;;;;;;;;5013227;28;20022;-61
2024/01/14 07:44:08;;;;;;;6.18;3.83;;;;;;;;;;5014690;28;20109;-61
2024/01/14 07:46:34;;;;;;;4.60;2.70;;;;;;;;;;5013355;28;20363;-61
2024/01/14 07:49:01;;;;;;;4.43;3.15;;;;;;;;;;5033107;28;20048;-61
2024/01/14 07:51:27;;;;;;;4.60;3.03;;;;;;;;;;5012612;28;20600;-61
2024/01/14 07:53:53;;;;;;;4.38;3.15;;;;;;;;;;5017637;28;20401;-62
2024/01/14 07:56:21;;;;;;;5.38;3.40;;;;;;;;;;5014993;28;20041;-60
2024/01/14 07:58:47;;;;;;;4.05;3.42;;;;;;;;;;5016123;28;20068;-61
2024/01/14 08:01:13;;;;;;;8.55;3.30;;;;;;;;;;5017361;28;20268;-61
2024/01/14 08:03:39;;;;;;;4.80;3.63;;;;;;;;;;5014401;28;20117;-63
2024/01/14 08:06:06;;;;;;;9.48;4.07;;;;;;;;;;5009670;28;20026;-62
2024/01/14 08:08:32;;;;;;;3.40;2.85;;;;;;;;;;5014413;28;20535;-61
2024/01/14 08:10:58;;;;;;;4.53;3.55;;;;;;;;;;5016090;28;20038;-60
2024/01/14 08:13:25;;;;;;;4.88;2.97;;;;;;;;;;5005377;28;20072;-61
2024/01/14 08:15:51;;;;;;;5.82;4.13;;;;;;;;;;5012969;28;20040;-61
2024/01/14 08:18:17;;;;;;;4.40;2.78;;;;;;;;;;5010191;28;20026;-61
2024/01/14 08:20:43;;;;;;;3.38;2.80;;;;;;;;;;5011020;28;20575;-61
2024/01/14 08:23:09;;;;;;;7.90;2.97;;;;;;;;;;5010131;28;20101;-60
2024/01/14 08:25:36;;;;;;;3.75;3.40;;;;;;;;;;5014186;28;20380;-62
2024/01/14 08:28:02;;;;;;;5.57;3.85;;;;;;;;;;5014654;28;20396;-61
2024/01/14 08:30:28;;;;;;;5.03;3.80;;;;;;;;;;5013237;28;20659;-61
2024/01/14 08:32:54;;;;;;;6.25;4.50;;;;;;;;;;5013829;28;20040;-61
2024/01/14 08:35:23;;;;;;;5.70;3.30;;;;;;;;;;5035536;28;20556;-60
2024/01/14 08:37:49;;;;;;;4.60;3.03;;;;;;;;;;5004199;28;20037;-61
2024/01/14 08:40:16;;;;;;;6.97;3.72;;;;;;;;;;5017938;28;20034;-61
2024/01/14 08:42:44;;;;;;;5.50;3.75;;;;;;;;;;5032163;28;20505;-61
2024/01/14 08:45:13;;;;;;;3.72;2.90;;;;;;;;;;5014965;28;20075;-61
2024/01/14 08:47:39;;;;;;;4.18;3.30;;;;;;;;;;5015577;28;20037;-60
2024/01/14 08:50:09;;;;;;;4.80;3.00;;;;;;;;;;5031422;28;20045;-63
2024/01/14 08:52:36;;;;;;;4.13;2.78;;;;;;;;;;5015534;28;20037;-61
2024/01/14 08:55:03;;;;;;;6.40;4.03;;;;;;;;;;5018962;28;20021;-60
2024/01/14 08:57:29;;;;;;;4.03;3.03;;;;;;;;;;5015157;28;20026;-60
2024/01/14 08:59:57;;;;;;;5.93;2.83;;;;;;;;;;5032073;28;20539;-60
2024/01/14 09:02:23;;;;;;;3.67;3.25;;;;;;;;;;5017376;28;20020;-61
2024/01/14 09:04:49;;;;;;;4.15;3.28;;;;;;;;;;5015783;28;20021;-61
2024/01/14 09:07:16;;;;;;;4.78;3.78;;;;;;;;;;5019871;28;20481;-61
2024/01/14 09:09:42;;;;;;;3.30;2.70;;;;;;;;;;5013736;28;20049;-62
2024/01/14 09:12:08;;;;;;;5.80;3.58;;;;;;;;;;5020306;28;20033;-61
2024/01/14 09:14:35;;;;;;;3.67;3.25;;;;;;;;;;5034875;28;20512;-61
2024/01/14 09:17:01;;;;;;;4.25;2.90;;;;;;;;;;5038111;28;20068;-61
2024/01/14 09:19:28;;;;;;;3.72;2.83;;;;;;;;;;5029659;28;20059;-62
2024/01/14 09:21:55;;;;;;;4.90;3.13;;;;;;;;;;5019027;28;20037;-65
2024/01/14 09:24:21;;;;;;;5.25;3.08;;;;;;;;;;5020017;28;20024;-62
2024/01/14 09:26:47;;;;;;;4.53;3.47;;;;;;;;;;5015910;28;20029;-61
2024/01/14 09:29:13;;;;;;;3.65;2.70;;;;;;;;;;5014885;28;20089;-61
2024/01/14 09:31:39;;;;;;;9.23;3.95;;;;;;;;;;5016413;28;20559;-62
2024/01/14 09:34:05;;;;;;;5.75;3.70;;;;;;;;;;5018605;28;20070;-61
2024/01/14 09:36:32;;;;;;;5.40;3.50;;;;;;;;;;5015588;28;20034;-61
2024/01/14 09:38:58;;;;;;;7.25;4.03;;;;;;;;;;5016513;28;20026;-62
2024/01/14 09:41:48;;;;;;;5.93;5.10;;;;;;;;;;5016584;28;20028;-61
2024/01/14 09:44:15;;;;;;;5.55;3.95;;;;;;;;;;5015941;28;20175;-64
2024/01/14 09:46:42;;;;;;;5.45;3.40;;;;;;;;;;5013791;28;20065;-62
2024/01/14 09:49:10;;;;;;;8.93;4.45;;;;;;;;;;5007810;28;20030;-61
2024/01/14 09:51:37;;;;;;;5.72;4.38;;;;;;;;;;5009581;28;20051;-62
2024/01/14 09:54:03;;;;;;;4.68;3.25;;;;;;;;;;5013907;28;20040;-61
2024/01/14 09:56:31;;;;;;;6.25;3.13;;;;;;;;;;5014682;28;20041;-61
2024/01/14 09:58:58;;;;;;;6.78;3.42;;;;;;;;;;5030405;28;20041;-62
2024/01/14 10:01:30;;;;;;;6.88;3.85;;;;;;;;;;5016558;28;20022;-61
2024/01/14 10:03:59;;;;;;;4.47;3.15;;;;;;;;;;5013566;28;20026;-62
2024/01/14 10:06:25;;;;;;;4.18;3.28;;;;;;;;;;5008850;28;20508;-62
2024/01/14 10:08:51;;;;;;;3.67;2.40;;;;;;;;;;5015228;28;20385;-61
2024/01/14 10:11:17;;;;;;;3.45;2.97;;;;;;;;;;5025355;28;20083;-62
2024/01/14 10:13:44;;;;;;;2.70;2.28;;;;;;;;;;5026482;28;20030;-61
2024/01/14 10:16:13;;;;;;;3.67;2.92;;;;;;;;;;5018042;28;20583;-62
2024/01/14 10:18:39;;;;;;;3.95;2.85;;;;;;;;;;5018310;28;20034;-61
2024/01/14 10:21:05;;;;;;;4.38;2.97;;;;;;;;;;5014043;28;20032;-62
2024/01/14 10:23:32;;;;;;;4.80;3.30;;;;;;;;;;5018152;28;20104;-61
2024/01/14 10:26:04;;;;;;;3.25;2.92;;;;;;;;;;5032451;28;20295;-61
2024/01/14 10:28:34;;;;;;;6.75;3.05;;;;;;;;;;5030895;28;20045;-62
2024/01/14 10:31:02;;;;;;;3.28;2.97;;;;;;;;;;5017007;28;20094;-61
2024/01/14 10:33:32;;;;;;;3.78;3.03;;;;;;;;;;5022914;28;20037;-66
2024/01/14 10:35:58;;;;;;;3.45;3.15;;;;;;;;;;5031233;28;20030;-62
2024/01/14 10:38:25;;;;;;;5.35;3.00;;;;;;;;;;5021224;28;20033;-61
2024/01/14 10:40:52;;;;;;;4.47;3.30;;;;;;;;;;5030842;28;20037;-61
2024/01/14 10:43:19;;;;;;;11.32;5.25;;;;;;;;;;5021557;28;20475;-61
2024/01/14 10:45:49;;;;;;;10.73;7.10;;;;;;;;;;5012809;28;20032;-61
2024/01/14 10:48:16;;;;;;;24.98;11.10;;;;;;;;;;5010916;28;20115;-61
2024/01/14 10:50:47;;;;;;;9.10;5.50;;;;;;;;;;5012526;28;20046;-64
2024/01/14 10:53:22;;;;;;;5.90;5.10;;;;;;;;;;5033052;28;20047;-61
2024/01/14 10:55:49;;;;;;;5.53;3.60;;;;;;;;;;5020254;28;20733;-65
2024/01/14 10:58:22;;;;;;;5.25;4.15;;;;;;;;;;5035158;28;20043;-62
2024/01/14 11:00:50;;;;;;;11.48;3.42;;;;;;;;;;5018791;28;20056;-62
2024/01/14 11:03:17;;;;;;;6.20;4.03;;;;;;;;;;5038519;28;20109;-61
2024/01/14 11:05:43;;;;;;;8.50;3.58;;;;;;;;;;5018087;28;20312;-63
2024/01/14 11:08:11;;;;;;;5.10;3.30;;;;;;;;;;5040720;28;20030;-62
2024/01/14 11:10:38;;;;;;;5.68;4.25;;;;;;;;;;5031745;28;20460;-61
2024/01/14 11:13:16;;;;;;;5.03;3.35;;;;;;;;;;5016182;28;20033;-61
2024/01/14 11:15:49;;;;;;;5.55;3.45;;;;;;;;;;5026759;28;20115;-62
2024/01/14 11:18:39;;;;;;;5.90;4.45;;;;;;;;;;5035172;28;20029;-62
2024/01/14 11:21:26;;;;;;;8.30;4.22;;;;;;;;;;5007706;28;20148;-64
2024/01/14 11:23:52;;;;;;;9.20;3.92;;;;;;;;;;5019095;28;20060;-65
2024/01/14 11:26:18;;;;;;;8.00;4.78;;;;;;;;;;5016242;28;20025;-62
2024/01/14 11:28:45;;;;;;;7.95;5.00;;;;;;;;;;5018882;28;20033;-62
2024/01/14 11:31:11;;;;;;;4.72;3.78;;;;;;;;;;5016063;28;20037;-62
2024/01/14 11:33:48;;;;;;;6.47;4.32;;;;;;;;;;5014141;28;20532;-62
2024/01/14 11:36:34;;;;;;;4.28;3.45;;;;;;;;;;5017491;28;20030;-62
2024/01/14 11:39:00;;;;;;;;;;;;;;;;;;5034047;28;20034;-62
2024/01/14 11:41:27;;;;;;;;;;;;;;;;;;5020676;28;20078;-62
2024/01/14 11:43:54;;;;;;;5.38;3.90;;;;;;;;;;5017311;28;19913;-65
2024/01/14 11:46:36;;;;;;;5.25;3.88;;;;;;;;;;5002159;28;20029;-63
2024/01/14 11:49:05;;;;;;;4.05;3.28;;;;;;;;;;5015527;28;20037;-62
2024/01/14 11:51:34;;;;;;;6.85;3.35;;;;;;;;;;4969052;28;1567246;-61
2024/01/14 11:54:06;;;;;;;7.18;4.03;;;;;;;;;;5020076;28;20159;-62
2024/01/14 11:56:32;;;;;;;4.60;3.53;;;;;;;;;;5035235;28;20456;-61
2024/01/14 11:58:59;;;;;;;7.07;3.60;;;;;;;;;;5019748;28;20030;-61
2024/01/14 12:01:28;;;;;;;4.55;3.13;;;;;;;;;;5021338;28;20040;-61
2024/01/14 12:04:04;;;;;;;5.28;3.10;;;;;;;;;;5030039;28;20025;-62
2024/01/14 12:06:40;;;;;;;8.55;4.30;;;;;;;;;;5021214;28;20034;-61
2024/01/14 12:09:07;;;;;;;6.68;5.13;;;;;;;;;;5022524;28;20021;-61
2024/01/14 12:11:42;;;;;;;7.55;4.20;;;;;;;;;;5021247;28;20048;-61
2024/01/14 12:14:09;;;;;;;9.52;3.80;;;;;;;;;;5036001;28;20040;-61
2024/01/14 12:16:35;;;;;;;8.07;4.25;;;;;;;;;;5031600;28;20308;-62
2024/01/14 12:19:13;;;;;;;7.40;4.53;;;;;;;;;;5021621;28;20040;-62
2024/01/14 12:21:39;;;;;;;6.60;4.50;;;;;;;;;;5017981;28;20116;-62
2024/01/14 12:24:06;;;;;;;6.38;3.90;;;;;;;;;;5023358;28;20024;-61
2024/01/14 12:26:32;;;;;;;9.27;4.10;;;;;;;;;;5022492;28;20091;-63
2024/01/14 12:28:59;;;;;;;8.30;4.50;;;;;;;;;;5014360;28;20033;-61
2024/01/14 12:31:25;;;;;;;26.52;9.48;;;;;;;;;;5017945;28;20067;-61
2024/01/14 12:33:52;;;;;;;28.58;12.35;;;;;;;;;;5016040;28;20076;-61
2024/01/14 12:36:19;;;;;;;15.13;10.35;;;;;;;;;;5016788;28;20421;-60
2024/01/14 12:38:45;;;;;;;6.05;4.75;;;;;;;;;;5013890;28;20041;-62
2024/01/14 12:41:14;;;;;;;8.43;4.38;;;;;;;;;;5019791;28;20442;-63
2024/01/14 12:43:41;;;;;;;7.30;5.07;;;;;;;;;;5014403;28;20454;-61
2024/01/14 12:46:07;;;;;;;7.88;4.00;;;;;;;;;;5027883;28;20075;-61
2024/01/14 12:48:33;;;;;;;9.15;3.35;;;;;;;;;;5014217;28;20492;-62
2024/01/14 12:51:04;;;;;;;5.65;4.00;;;;;;;;;;5011060;28;20072;-62
2024/01/14 12:53:31;;;;;;;6.45;3.88;;;;;;;;;;5019406;28;20045;-61
2024/01/14 12:56:13;;;;;;;3.97;3.35;;;;;;;;;;5018395;28;20041;-61
2024/01/14 12:58:40;;;;;;;6.90;4.28;;;;;;;;;;5011894;28;20363;-70
2024/01/14 13:01:09;;;;;;;7.80;3.28;;;;;;;;;;5037734;28;20021;-63
2024/01/14 13:03:38;;;;;;;6.95;3.15;;;;;;;;;;5035832;28;20025;-61
2024/01/14 13:06:05;;;;;;;4.70;3.60;;;;;;;;;;5014620;28;20121;-61
2024/01/14 13:08:31;;;;;;;4.55;2.45;;;;;;;;;;5011273;28;20060;-60
2024/01/14 13:10:58;;;;;;;3.40;2.42;;;;;;;;;;5018107;28;20485;-63
2024/01/14 13:13:24;;;;;;;2.83;1.95;;;;;;;;;;5019854;28;20053;-61
2024/01/14 13:15:50;;;;;;;4.88;2.10;;;;;;;;;;5025678;28;20041;-61
2024/01/14 13:18:16;;;;;;;10.15;2.22;;;;;;;;;;5015351;28;20497;-62
2024/01/14 13:20:42;;;;;;;6.10;2.97;;;;;;;;;;5019392;28;20056;-62
2024/01/14 13:23:08;;;;;;;2.67;2.15;;;;;;;;;;5018232;28;20386;-60
2024/01/14 13:25:35;;;;;;;6.13;2.58;;;;;;;;;;5019031;28;20493;-63
2024/01/14 13:28:03;;;;;;;3.85;2.67;;;;;;;;;;5014848;28;20022;-63
2024/01/14 13:30:29;;;;;;;5.68;2.63;;;;;;;;;;5019763;28;20037;-62
2024/01/14 13:32:55;;;;;;;3.53;2.35;;;;;;;;;;5010838;28;20517;-61
2024/01/14 13:35:21;;;;;;;6.60;2.45;;;;;;;;;;5017664;28;20604;-62
2024/01/14 13:37:47;;;;;;;3.22;2.30;;;;;;;;;;5009295;28;20081;-62
2024/01/14 13:40:14;;;;;;;3.35;2.38;;;;;;;;;;5012380;28;20029;-61
2024/01/14 13:42:41;;;;;;;5.03;3.10;;;;;;;;;;5006942;28;20041;-61
2024/01/14 13:45:08;;;;;;;14.63;5.85;;;;;;;;;;5008133;28;20104;-62
2024/01/14 13:47:34;;;;;;;3.58;2.50;;;;;;;;;;5012514;28;20492;-61
2024/01/14 13:50:01;;;;;;;12.55;3.35;;;;;;;;;;5018120;28;20861;-61
2024/01/14 13:52:27;;;;;;;8.00;4.20;;;;;;;;;;5012015;28;20060;-62
2024/01/14 13:54:53;;;;;;;12.50;7.38;;;;;;;;;;5007381;28;20064;-63
2024/01/14 13:57:19;;;;;;;8.68;4.88;;;;;;;;;;5017571;28;20030;-63
2024/01/14 13:59:45;;;;;;;10.27;5.80;;;;;;;;;;5013459;28;20505;-61
2024/01/14 14:02:13;;;;;;;5.68;2.95;;;;;;;;;;5017701;28;20032;-61
2024/01/14 14:04:40;;;;;;;6.30;3.03;;;;;;;;;;5014043;28;20022;-67
2024/01/14 14:07:06;;;;;;;9.50;3.38;;;;;;;;;;5019763;28;20495;-62
2024/01/14 14:09:32;;;;;;;9.45;4.38;;;;;;;;;;5023814;28;20037;-62
2024/01/14 14:11:59;;;;;;;4.10;2.88;;;;;;;;;;5024710;28;20249;-62
2024/01/14 14:14:25;;;;;;;6.28;3.25;;;;;;;;;;5010775;28;20037;-61
2024/01/14 14:16:51;;;;;;;8.40;3.60;;;;;;;;;;5012388;28;20587;-61
2024/01/14 14:19:17;;;;;;;12.30;4.97;;;;;;;;;;5015746;28;20070;-61
2024/01/14 14:21:43;;;;;;;5.43;2.75;;;;;;;;;;5014846;28;20099;-61
2024/01/14 14:24:10;;;;;;;12.05;5.10;;;;;;;;;;5008217;28;20095;-66
2024/01/14 14:26:36;;;;;;;11.02;5.68;;;;;;;;;;5016716;28;20845;-61
2024/01/14 14:29:02;;;;;;;9.07;4.40;;;;;;;;;;5022777;28;20025;-61
2024/01/14 14:31:31;;;;;;;19.15;6.95;;;;;;;;;;5009549;28;20029;-61
2024/01/14 14:33:58;;;;;;;39.40;13.48;;;;;;;;;;5013398;28;20034;-61
2024/01/14 14:36:25;;;;;;;15.15;5.85;;;;;;;;;;5018628;28;20050;-61
2024/01/14 14:38:51;;;;;;;20.60;9.32;;;;;;;;;;5005482;28;20034;-61